Flight Track Log - Related Links

Times and Time Zones

All times are in EDT time to prevent confusion due to time zone crossing. See the BJS444 flight status page for this flight to view local times or setup timezone preferences in your user account.

Time Position Orientation Groundspeed Altitude Reporting Facility
EDT Latitude Longitude Course Direction KTS MPH feet Rate Location/Type
Sun 09:38:58 AM 41.4667 -73.1833 161° South 216 249 3,900  Level New York TRACON
Sun 09:39:39 AM 41.4269 -73.1656 161° South 234 269 4,200 1,824 Climbing Boston Center
Sun 09:41:03 AM 41.3417 -73.1314 163° South 261 300 7,700 1,958 Climbing Boston Center
Sun 09:42:03 AM 41.2650 -73.0531 142° Southeast 288 331 8,900 650 Climbing Boston Center
Sun 09:43:03 AM 41.1967 -72.9892 145° Southeast 293 337 9,000 400 Climbing Boston Center
Sun 09:44:03 AM 41.1303 -72.9222 143° Southeast 298 343 9,700 500 Climbing Boston Center
Sun 09:45:03 AM 41.0597 -72.8558 145° Southeast 304 350 10,000 909 Climbing Boston Center
Sun 09:46:15 AM 40.9828 -72.7864 146° Southeast 316 364 11,700 3,045 Climbing Boston Center
Sun 09:47:15 AM 40.8808 -72.6872 144° Southeast 358 412 16,700 4,450 Climbing Boston Center
Sun 09:48:15 AM 40.7850 -72.6894 181° South 333 383 20,600 4,100 Climbing Boston Center
Sun 09:49:15 AM 40.7056 -72.7658 216° Southwest 325 374 24,900 3,650 Climbing Boston Center
Sun 09:50:15 AM 40.6344 -72.8447 220° Southwest 321 369 27,900 2,700 Climbing Boston Center
Sun 09:51:15 AM 40.5758 -72.9072 219° Southwest 333 383 30,300 3,000 Climbing Boston Center
Sun 09:52:15 AM 40.4881 -72.9967 218° Southwest 338 389 33,900 2,800 Climbing Boston Center
Sun 09:53:15 AM 40.4147 -73.0697 217° Southwest 343 395 35,900 1,850 Climbing Boston Center
Sun 09:54:15 AM 40.3475 -73.1453 221° Southwest 338 389 37,600 1,154 Climbing Boston Center
Sun 09:56:17 AM 40.2122 -73.2933 220° Southwest 330 380 39,400 824 Climbing Washington Center
Sun 09:57:17 AM 40.1347 -73.3744 219° Southwest 348 400 40,100 700 Climbing Washington Center
Sun 09:58:17 AM 40.0486 -73.4639 219° Southwest 359 413 40,800 700 Climbing Washington Center
Sun 09:59:17 AM 39.9669 -73.5478 218° Southwest 364 419 41,500 700 Climbing Washington Center
Sun 10:00:17 AM 39.8850 -73.6339 219° Southwest 369 425 42,200 600 Climbing Washington Center
Sun 10:01:17 AM 39.8072 -73.7142 218° Southwest 369 425 42,700 400 Climbing Washington Center
Sun 10:02:17 AM 39.7272 -73.7972 219° Southwest 369 425 43,000 150 Climbing Washington Center
Sun 10:03:17 AM 39.6469 -73.8803 219° Southwest 369 425 43,000  Level Washington Center
Sun 10:04:17 AM 39.5753 -73.9519 218° Southwest 369 425 43,000  Level Washington Center
Sun 10:05:17 AM 39.4928 -74.0344 218° Southwest 369 425 43,000  Level Washington Center
Sun 10:06:17 AM 39.4128 -74.1169 219° Southwest 375 432 43,000  Level Washington Center
Sun 10:07:17 AM 39.3261 -74.2044 218° Southwest 380 437 43,000  Level Washington Center
Sun 10:08:17 AM 39.2458 -74.2864 218° Southwest 380 437 43,000  Level Washington Center
Sun 10:09:17 AM 39.1675 -74.3681 219° Southwest 380 437 43,000  Level Washington Center
Sun 10:10:17 AM 39.0850 -74.4497 218° Southwest 380 437 43,000  Level Washington Center
Sun 10:11:17 AM 39.0022 -74.5339 218° Southwest 380 437 43,000  Level Washington Center
Sun 10:12:17 AM 38.9197 -74.6178 218° Southwest 380 437 43,000  Level Washington Center
Sun 10:13:16 AM 38.8369 -74.6989 217° Southwest 385 443 43,000  Level Washington Center
Sun 10:14:16 AM 38.7583 -74.7797 219° Southwest 385 443 43,000  Level Washington Center
Sun 10:15:17 AM 38.6733 -74.8578 216° Southwest 385 443 43,000  Level Washington Center
Sun 10:16:16 AM 38.5925 -74.9408 219° Southwest 385 443 43,000  Level Washington Center
Sun 10:17:17 AM 38.5094 -75.0214 217° Southwest 385 443 43,000  Level Washington Center
Sun 10:18:17 AM 38.4264 -75.1042 218° Southwest 385 443 43,000  Level Washington Center
Sun 10:19:17 AM 38.3433 -75.1867 218° Southwest 390 449 43,000  Level Washington Center
Sun 10:20:17 AM 38.2539 -75.2822 220° Southwest 390 449 43,000  Level Washington Center
Sun 10:21:17 AM 38.1686 -75.3619 216° Southwest 390 449 43,000  Level Washington Center
Sun 10:22:17 AM 38.0833 -75.4467 218° Southwest 390 449 43,000  Level Washington Center
Sun 10:23:17 AM 37.9917 -75.5153 211° Southwest 390 449 43,000  Level Washington Center
Sun 10:24:17 AM 37.9000 -75.5892 212° Southwest 390 449 43,000  Level Washington Center
Sun 10:25:17 AM 37.8061 -75.6550 209° Southwest 395 455 43,000  Level Washington Center
Sun 10:26:17 AM 37.7142 -75.7256 211° Southwest 395 455 43,000  Level Washington Center
Sun 10:27:17 AM 37.6244 -75.7964 212° Southwest 390 449 43,000  Level Washington Center
Sun 10:28:17 AM 37.5325 -75.8642 210° Southwest 384 442 43,000  Level Washington Center
Sun 10:29:17 AM 37.4322 -75.9161 202° Southwest 384 442 43,000  Level Washington Center
Sun 10:30:17 AM 37.3342 -75.9706 204° Southwest 384 442 43,000  Level Washington Center
Sun 10:31:17 AM 37.2381 -76.0222 203° Southwest 384 442 43,000  Level Washington Center
Sun 10:32:17 AM 37.1378 -76.0739 202° Southwest 384 442 43,000  Level Washington Center
Sun 10:33:17 AM 37.0436 -76.1281 205° Southwest 384 442 43,000  Level Washington Center
Sun 10:34:17 AM 36.9475 -76.1689 199° South 389 448 43,000  Level Washington Center
Sun 10:35:17 AM 36.8533 -76.2306 208° Southwest 389 448 43,000 -500 Level Washington Center
Sun 10:36:17 AM 36.7694 -76.3103 217° Southwest 389 448 42,000 -1,050 Descending Washington Center
Sun 10:37:17 AM 36.6750 -76.4000 217° Southwest 389 448 40,900 -1,000 Descending Washington Center
Sun 10:38:17 AM 36.5908 -76.4767 216° Southwest 389 448 40,000 -450 Descending Washington Center
Sun 10:39:17 AM 36.5069 -76.5533 216° Southwest 389 448 40,000  Level Washington Center
Sun 10:40:17 AM 36.4269 -76.6219 215° Southwest 374 430 40,000 -400 Level Washington Center
Sun 10:41:17 AM 36.3472 -76.6958 217° Southwest 364 419 39,200 -1,100 Descending Washington Center
Sun 10:42:17 AM 36.2631 -76.7692 215° Southwest 364 419 37,800 -1,350 Descending Washington Center
Sun 10:43:17 AM 36.1808 -76.8425 216° Southwest 369 425 36,500 -900 Descending Washington Center
Sun 10:44:17 AM 36.0944 -76.9183 215° Southwest 369 425 36,000 -252 Descending Washington Center
Sun 10:45:16 AM 36.0081 -76.9939 215° Southwest 374 430 36,000  Level Washington Center
Sun 10:46:17 AM 35.9217 -77.0694 215° Southwest 384 442 36,000  Level Washington Center
Sun 10:47:17 AM 35.8519 -77.1372 218° Southwest 377 434 36,000  Level Washington Center
Sun 10:48:17 AM 35.7694 -77.2100 216° Southwest 372 428 36,000 -600 Level Washington Center
Sun 10:49:17 AM 35.6831 -77.2850 215° Southwest 372 428 34,800 -1,350 Descending Washington Center
Sun 10:50:17 AM 35.5983 -77.3597 216° Southwest 377 434 33,300 -1,550 Descending Washington Center
Sun 10:51:17 AM 35.5075 -77.4394 216° Southwest 392 451 31,700 -1,450 Descending Washington Center
Sun 10:52:17 AM 35.4167 -77.5189 215° Southwest 397 457 30,400 -850 Descending Washington Center
Sun 10:53:17 AM 35.3297 -77.6033 218° Southwest 397 457 30,000 -200 Descending Washington Center
Sun 10:54:17 AM 35.2425 -77.6900 219° Southwest 402 463 30,000  Level Washington Center
Sun 10:55:17 AM 35.1597 -77.7794 221° Southwest 402 463 30,000  Level Washington Center
Sun 10:56:17 AM 35.0744 -77.8658 220° Southwest 402 463 30,000  Level Washington Center
Sun 10:57:17 AM 34.9853 -77.9547 219° Southwest 407 468 30,000  Level Washington Center
Sun 10:58:17 AM 34.8956 -78.0483 221° Southwest 407 468 30,000  Level Washington Center
Sun 10:59:17 AM 34.8103 -78.1344 220° Southwest 407 468 30,000  Level Washington Center
Sun 11:01:32 AM 34.6300 -78.3258 221° Southwest 396 456 30,000 -369 Level Jacksonville Center
Sun 11:02:32 AM 34.5472 -78.4083 219° Southwest 396 456 28,800 -1,000 Descending Jacksonville Center
Sun 11:03:32 AM 34.4628 -78.4933 220° Southwest 396 456 28,000 -400 Descending Jacksonville Center
Sun 11:04:32 AM 34.3742 -78.5833 220° Southwest 411 473 28,000  Level Jacksonville Center
Sun 11:05:32 AM 34.3056 -78.6519 220° Southwest 416 479 28,000 -500 Level Jacksonville Center
Sun 11:06:32 AM 34.2069 -78.7622 223° Southwest 416 479 27,000 -1,500 Descending Jacksonville Center
Sun 11:07:32 AM 34.1225 -78.8592 224° Southwest 416 479 25,000 -1,500 Descending Jacksonville Center
Sun 11:08:32 AM 34.0400 -78.9531 223° Southwest 416 479 24,000 -1,050 Descending Jacksonville Center
Sun 11:09:32 AM 33.9611 -79.0417 223° Southwest 411 473 22,900 -1,450 Descending Jacksonville Center
Sun 11:10:32 AM 33.8806 -79.1328 223° Southwest 411 473 21,100 -1,800 Descending Jacksonville Center
Sun 11:11:32 AM 33.7978 -79.2264 223° Southwest 411 473 19,300 -1,700 Descending Jacksonville Center
Sun 11:12:32 AM 33.7039 -79.3028 214° Southwest 392 451 17,700 -1,750 Descending Jacksonville Center
Sun 11:13:32 AM 33.6139 -79.3686 211° Southwest 382 440 15,800 -1,850 Descending Jacksonville Center
Sun 11:14:32 AM 33.5239 -79.4344 211° Southwest 382 440 14,000 -1,800 Descending Jacksonville Center
Sun 11:15:32 AM 33.4403 -79.5000 213° Southwest 382 440 12,200 -1,450 Descending Jacksonville Center
Sun 11:16:32 AM 33.3583 -79.5628 213° Southwest 371 427 11,100 -700 Descending Jacksonville Center
Sun 11:17:32 AM 33.2828 -79.6178 211° Southwest 353 406 10,800 -850 Descending Jacksonville Center
Sun 11:18:32 AM 33.2128 -79.6650 209° Southwest 313 360 9,400 -1,450 Descending Jacksonville Center
Sun 11:19:32 AM 33.1408 -79.7000 202° Southwest 289 333 7,900 -1,500 Descending Jacksonville Center
Sun 11:20:32 AM 33.0728 -79.7319 201° Southwest 277 319 6,400 -1,475 Descending Jacksonville Center
Sun 11:21:34 AM 33.0067 -79.7667 204° Southwest 271 312 4,900 -1,091 Descending Jacksonville Center
Sun 11:22:44 AM 32.9264 -79.8139 206° Southwest 271 312 4,000 -415 Descending Jacksonville Center
Sun 11:23:44 AM 32.8586 -79.8508 205° Southwest 271 312 4,000 -450 Level Jacksonville Center
Sun 11:24:44 AM 32.8161 -79.9142 231° Southwest 246 283 3,100 -900 Descending Jacksonville Center
Sun 11:26:00 AM 32.8833 -80.0333 348° North  Level FlightAware Approximate
Sun 11:33:00 AM 32.8986 -80.0405 348° North  Level Estimated
Sun 11:34:00 AM 32.8986 -80.0405 348° North  Level Estimated
Sun 11:35:00 AM 32.8986 -80.0405 348° North  Level Estimated
Sun 11:36:00 AM 32.8986 -80.0405 348° North  Level Estimated
Sun 11:37:00 AM 32.8986 -80.0405 348° North  Level Estimated
Sun 11:38:00 AM 32.8986 -80.0405 348° North  Level Estimated

Login

Don't have an account? Register now (free) for customized features, flight alerts, and more!